Time;durP1;ratioP1;P1;durP2;ratioP2;P2;SDS_P1;SDS_P2;PMS_P1;PMS_P2;Temp;Humidity;BMP_temperature;BMP_pressure;BME280_temperature;BME280_humidity;BME280_pressure;Samples;Min_cycle;Max_cycle;Signal;HPM_P1;HPM_P2
2022/10/30 00:00:15;;;;;;;;;;;;;;;;;;5054388;28;20012;-77
2022/10/30 00:02:42;;;;;;;;;;;;;;;;;;5057193;28;19968;-77
2022/10/30 00:05:08;;;;;;;;;;;;;;;;;;5074646;28;19931;-78
2022/10/30 00:07:35;;;;;;;;;;;;;;;;;;5074619;28;19960;-78
2022/10/30 00:10:01;;;;;;;;;;;;;;;;;;5074445;28;20040;-77
2022/10/30 00:12:28;;;;;;;;;;;;;;;;;;5074284;28;19970;-78
2022/10/30 00:14:55;;;;;;;;;;;;;;;;;;5074360;28;19995;-77
2022/10/30 00:17:22;;;;;;;;;;;;;;;;;;5073576;28;19931;-78
2022/10/30 00:19:48;;;;;;;;;;;;;;;;;;5070430;28;20231;-78
2022/10/30 00:22:15;;;;;;;;;;;;;;;;;;5057004;28;19985;-77
2022/10/30 00:24:41;;;;;;;;;;;;;;;;;;5053482;28;20392;-78
2022/10/30 00:27:08;;;;;;;;;;;;;;;;;;5053725;28;19947;-77
2022/10/30 00:29:34;;;;;;;;;;;;;;;;;;5053614;28;20424;-77
2022/10/30 00:32:02;;;;;;;;;;;;;;;;;;5059186;28;20377;-77
2022/10/30 00:34:28;;;;;;;;;;;;;;;;;;5068063;28;19950;-77
2022/10/30 00:36:55;;;;;;;;;;;;;;;;;;5073245;28;19924;-77
2022/10/30 00:39:21;;;;;;;;;;;;;;;;;;5073371;28;19962;-77
2022/10/30 00:41:48;;;;;;;;;;;;;;;;;;5073741;28;19930;-77
2022/10/30 00:44:35;;;;;;;;;;;;;;;;;;5073659;28;19972;-77
2022/10/30 00:47:04;;;;;;;;;;;;;;;;;;5073478;28;20014;-78
2022/10/30 00:49:31;;;;;;;;;;;;;;;;;;5073185;28;20391;-78
2022/10/30 00:51:58;;;;;;;;;;;;;;;;;;5073309;28;19970;-78
2022/10/30 00:54:24;;;;;;;;;;;;;;;;;;5073451;28;19924;-78
2022/10/30 00:56:51;;;;;;;;;;;;;;;;;;5073176;28;19928;-77
2022/10/30 00:59:20;;;;;;;;;;;;;;;;;;5072911;28;20020;-77
2022/10/30 01:01:46;;;;;;;;;;;;;;;;;;5073166;28;20570;-77
2022/10/30 01:04:16;;;;;;;;;;;;;;;;;;5058587;28;19925;-77
2022/10/30 01:06:46;;;;;;;;;;;;;;;;;;5052920;28;20451;-77
2022/10/30 01:09:13;;;;;;;;;;;;;;;;;;5053040;28;19924;-77
2022/10/30 01:11:40;;;;;;;;;;;;;;;;;;5052947;28;19929;-77
2022/10/30 01:14:08;;;;;;;;;;;;;;;;;;5053350;28;19999;-77
2022/10/30 01:16:41;;;;;;;;;;;;;;;;;;5053363;28;19924;-77
2022/10/30 01:19:14;;;;;;;;;;;;;;;;;;5053023;28;20292;-77
2022/10/30 01:21:46;;;;;;;;;;;;;;;;;;5052699;28;20402;-78
2022/10/30 01:24:20;;;;;;;;;;;;;;;;;;5053080;28;20019;-78
2022/10/30 01:26:49;;;;;;;;;;;;;;;;;;5052728;28;20443;-78
2022/10/30 01:29:22;;;;;;;;;;;;;;;;;;5052329;28;20020;-78
2022/10/30 01:31:57;;;;;;;;;;;;;;;;;;5052871;28;19932;-78
2022/10/30 01:34:29;;;;;;;;;;;;;;;;;;5052700;28;19925;-78
2022/10/30 01:36:59;;;;;;;;;;;;;;;;;;5052624;28;19929;-78
2022/10/30 01:39:27;;;;;;;;;;;;;;;;;;5052482;28;19925;-77
2022/10/30 01:41:53;;;;;;;;;;;;;;;;;;5052439;28;19925;-77
2022/10/30 01:44:21;;;;;;;;;;;;;;;;;;5053017;28;19924;-78
2022/10/30 01:46:55;;;;;;;;;;;;;;;;;;5053131;28;19924;-78
2022/10/30 01:49:28;;;;;;;;;;;;;;;;;;5053408;28;20738;-78
2022/10/30 01:51:57;;;;;;;;;;;;;;;;;;5053629;28;20081;-78
2022/10/30 01:54:30;;;;;;;;;;;;;;;;;;5053710;28;19934;-77
2022/10/30 01:57:02;;;;;;;;;;;;;;;;;;5053000;28;20011;-77
2022/10/30 01:59:31;;;;;;;;;;;;;;;;;;5054075;28;19989;-77
2022/10/30 02:01:57;;;;;;;;;;;;;;;;;;5054232;28;20387;-77
2022/10/30 02:04:24;;;;;;;;;;;;;;;;;;5071433;28;19968;-78
2022/10/30 02:06:51;;;;;;;;;;;;;;;;;;5073578;28;19933;-77
2022/10/30 02:09:17;;;;;;;;;;;;;;;;;;5072843;28;20303;-77
2022/10/30 02:11:46;;;;;;;;;;;;;;;;;;5072951;28;20398;-77
2022/10/30 02:14:13;;;;;;;;;;;;;;;;;;5072883;28;19974;-77
2022/10/30 02:16:42;;;;;;;;;;;;;;;;;;5074293;28;20011;-78
2022/10/30 02:19:09;;;;;;;;;;;;;;;;;;5073874;28;20015;-78
2022/10/30 02:21:36;;;;;;;;;;;;;;;;;;5073780;28;20007;-78
2022/10/30 02:24:03;;;;;;;;;;;;;;;;;;5073978;28;20012;-78
2022/10/30 02:26:29;;;;;;;;;;;;;;;;;;5074331;28;19931;-76
2022/10/30 02:28:56;;;;;;;;;;;;;;;;;;5073002;28;20015;-78
2022/10/30 02:31:22;;;;;;;;;;;;;;;;;;5072803;28;19931;-78
2022/10/30 02:33:49;;;;;;;;;;;;;;;;;;5072430;28;19924;-78
2022/10/30 02:36:15;;;;;;;;;;;;;;;;;;5072256;28;19924;-78
2022/10/30 02:38:43;;;;;;;;;;;;;;;;;;5072286;28;19931;-78
2022/10/30 02:41:09;;;;;;;;;;;;;;;;;;5072765;28;19924;-78
2022/10/30 02:43:36;;;;;;;;;;;;;;;;;;5076413;28;19964;-78
2022/10/30 02:46:04;;;;;;;;;;;;;;;;;;5076240;28;19924;-78
2022/10/30 02:48:31;;;;;;;;;;;;;;;;;;5075876;28;19932;-78
2022/10/30 02:50:59;;;;;;;;;;;;;;;;;;5075768;28;20367;-77
2022/10/30 02:53:25;;;;;;;;;;;;;;;;;;5075655;28;19924;-78
2022/10/30 02:55:53;;;;;;;;;;;;;;;;;;5075732;28;19964;-78
2022/10/30 02:58:19;;;;;;;;;;;;;;;;;;5075417;28;19968;-77
2022/10/30 03:00:46;;;;;;;;;;;;;;;;;;5075813;28;19924;-78
2022/10/30 03:03:12;;;;;;;;;;;;;;;;;;5069046;28;19931;-78
2022/10/30 03:05:39;;;;;;;;;;;;;;;;;;5055844;28;19931;-79
2022/10/30 03:08:05;;;;;;;;;;;;;;;;;;5055776;28;19960;-79
2022/10/30 03:10:32;;;;;;;;;;;;;;;;;;5055396;28;19924;-78
2022/10/30 03:13:00;;;;;;;;;;;;;;;;;;5055518;28;19925;-78
2022/10/30 03:15:26;;;;;;;;;;;;;;;;;;5057187;28;19931;-77
2022/10/30 03:17:52;;;;;;;;;;;;;;;;;;5056906;28;19931;-78
2022/10/30 03:20:19;;;;;;;;;;;;;;;;;;5055388;28;19975;-78
2022/10/30 03:22:46;;;;;;;;;;;;;;;;;;5055512;28;20277;-78
2022/10/30 03:25:12;;;;;;;;;;;;;;;;;;5055724;28;20024;-78
2022/10/30 03:27:39;;;;;;;;;;;;;;;;;;5055414;28;20396;-78
2022/10/30 03:30:07;;;;;;;;;;;;;;;;;;5064240;28;19925;-78
2022/10/30 03:32:34;;;;;;;;;;;;;;;;;;5055812;28;19925;-79
2022/10/30 03:35:00;;;;;;;;;;;;;;;;;;5056278;28;19960;-78
2022/10/30 03:37:27;;;;;;;;;;;;;;;;;;5055100;28;19968;-78
2022/10/30 03:39:53;;;;;;;;;;;;;;;;;;5054490;28;20016;-78
2022/10/30 03:42:20;;;;;;;;;;;;;;;;;;5055188;28;19976;-78
2022/10/30 03:44:46;;;;;;;;;;;;;;;;;;5055174;28;20016;-78
2022/10/30 03:47:14;;;;;;;;;;;;;;;;;;5054911;28;19932;-78
2022/10/30 03:49:40;;;;;;;;;;;;;;;;;;5054591;28;20024;-78
2022/10/30 03:52:07;;;;;;;;;;;;;;;;;;5061116;28;19996;-77
2022/10/30 03:54:33;;;;;;;;;;;;;;;;;;5062961;28;19925;-77
2022/10/30 03:56:59;;;;;;;;;;;;;;;;;;5062153;28;19964;-78
2022/10/30 03:59:26;;;;;;;;;;;;;;;;;;5058508;28;20394;-78
2022/10/30 04:01:52;;;;;;;;;;;;;;;;;;5055296;28;19924;-78
2022/10/30 04:04:20;;;;;;;;;;;;;;;;;;5070698;28;20003;-78
2022/10/30 04:06:47;;;;;;;;;;;;;;;;;;5074693;28;19982;-78
2022/10/30 04:09:16;;;;;;;;;;;;;;;;;;5074276;28;20019;-78
2022/10/30 04:11:43;;;;;;;;;;;;;;;;;;5075009;28;20011;-77
2022/10/30 04:14:10;;;;;;;;;;;;;;;;;;5073920;28;19924;-76
2022/10/30 04:16:36;;;;;;;;;;;;;;;;;;5074052;28;20016;-76
2022/10/30 04:19:03;;;;;;;;;;;;;;;;;;5073534;28;19924;-77
2022/10/30 04:21:30;;;;;;;;;;;;;;;;;;5074252;28;20007;-76
2022/10/30 04:23:57;;;;;;;;;;;;;;;;;;5074063;28;20007;-77
2022/10/30 04:26:23;;;;;;;;;;;;;;;;;;5074014;28;19924;-77
2022/10/30 04:28:50;;;;;;;;;;;;;;;;;;5073583;28;19930;-76
2022/10/30 04:31:16;;;;;;;;;;;;;;;;;;5073829;28;19972;-77
2022/10/30 04:33:43;;;;;;;;;;;;;;;;;;5073596;28;20012;-77
2022/10/30 04:36:09;;;;;;;;;;;;;;;;;;5074147;28;19928;-77
2022/10/30 04:38:37;;;;;;;;;;;;;;;;;;5073520;28;19974;-76
2022/10/30 04:41:03;;;;;;;;;;;;;;;;;;5073506;28;19968;-76
2022/10/30 04:43:30;;;;;;;;;;;;;;;;;;5073580;28;20019;-76
2022/10/30 04:45:56;;;;;;;;;;;;;;;;;;5073462;28;20019;-76
2022/10/30 04:48:23;;;;;;;;;;;;;;;;;;5073046;28;20019;-76
2022/10/30 04:50:49;;;;;;;;;;;;;;;;;;5073052;28;20253;-77
2022/10/30 04:53:16;;;;;;;;;;;;;;;;;;5073234;28;20451;-76
2022/10/30 04:55:44;;;;;;;;;;;;;;;;;;5073206;28;20474;-77
2022/10/30 04:58:11;;;;;;;;;;;;;;;;;;5073538;28;20002;-76
2022/10/30 05:00:38;;;;;;;;;;;;;;;;;;5072857;28;20364;-76
2022/10/30 05:03:04;;;;;;;;;;;;;;;;;;5068019;28;20056;-76
2022/10/30 05:05:31;;;;;;;;;;;;;;;;;;5052332;28;20016;-76
2022/10/30 05:07:57;;;;;;;;;;;;;;;;;;5053580;28;19925;-76
2022/10/30 05:10:24;;;;;;;;;;;;;;;;;;5052909;28;20023;-77
2022/10/30 05:12:53;;;;;;;;;;;;;;;;;;5053046;28;20004;-76
2022/10/30 05:15:19;;;;;;;;;;;;;;;;;;5053048;28;20015;-76
2022/10/30 05:17:46;;;;;;;;;;;;;;;;;;5053086;28;20059;-75
2022/10/30 05:20:12;;;;;;;;;;;;;;;;;;5051881;28;20023;-77
2022/10/30 05:22:39;;;;;;;;;;;;;;;;;;5053315;28;19925;-76
2022/10/30 05:25:06;;;;;;;;;;;;;;;;;;5053056;28;20007;-77
2022/10/30 05:27:32;;;;;;;;;;;;;;;;;;5052756;28;20024;-77
2022/10/30 05:30:00;;;;;;;;;;;;;;;;;;5052403;28;19932;-77
2022/10/30 05:32:27;;;;;;;;;;;;;;;;;;5052777;28;20024;-77
2022/10/30 05:34:53;;;;;;;;;;;;;;;;;;5052623;28;19975;-77
2022/10/30 05:37:21;;;;;;;;;;;;;;;;;;5052920;28;19979;-76
2022/10/30 05:39:48;;;;;;;;;;;;;;;;;;5052486;28;20002;-76
2022/10/30 05:42:14;;;;;;;;;;;;;;;;;;5053108;28;20015;-76
2022/10/30 05:44:41;;;;;;;;;;;;;;;;;;5052407;28;20383;-76
2022/10/30 05:47:10;;;;;;;;;;;;;;;;;;5052411;28;19925;-77
2022/10/30 05:49:37;;;;;;;;;;;;;;;;;;5052550;28;20007;-76
2022/10/30 05:52:03;;;;;;;;;;;;;;;;;;5052385;28;19936;-77
2022/10/30 05:54:31;;;;;;;;;;;;;;;;;;5052425;28;20370;-77
2022/10/30 05:56:57;;;;;;;;;;;;;;;;;;5052609;28;19925;-79
2022/10/30 05:59:24;;;;;;;;;;;;;;;;;;5052075;28;20659;-76
2022/10/30 06:01:50;;;;;;;;;;;;;;;;;;5052295;28;20384;-76
2022/10/30 06:04:18;;;;;;;;;;;;;;;;;;5067797;28;19925;-76
2022/10/30 06:06:45;;;;;;;;;;;;;;;;;;5072235;28;19972;-76
2022/10/30 06:09:11;;;;;;;;;;;;;;;;;;5072401;28;19931;-76
2022/10/30 06:11:37;;;;;;;;;;;;;;;;;;5072019;28;19971;-77
2022/10/30 06:14:04;;;;;;;;;;;;;;;;;;5072268;28;19974;-76
2022/10/30 06:16:30;;;;;;;;;;;;;;;;;;5073157;28;19972;-77
2022/10/30 06:18:57;;;;;;;;;;;;;;;;;;5076189;28;20023;-76
2022/10/30 06:21:25;;;;;;;;;;;;;;;;;;5076289;28;19928;-76
2022/10/30 06:23:51;;;;;;;;;;;;;;;;;;5076384;28;19967;-77
2022/10/30 06:26:19;;;;;;;;;;;;;;;;;;5076412;28;19924;-77
2022/10/30 06:28:47;;;;;;;;;;;;;;;;;;5076725;28;19924;-76
2022/10/30 06:31:14;;;;;;;;;;;;;;;;;;5076719;28;20007;-76
2022/10/30 06:33:40;;;;;;;;;;;;;;;;;;5076311;28;20272;-77
2022/10/30 06:36:07;;;;;;;;;;;;;;;;;;5076316;28;19964;-76
2022/10/30 06:38:35;;;;;;;;;;;;;;;;;;5076050;28;19977;-76
2022/10/30 06:41:01;;;;;;;;;;;;;;;;;;5076283;28;20011;-76
2022/10/30 06:43:28;;;;;;;;;;;;;;;;;;5076182;28;20425;-76
2022/10/30 06:45:54;;;;;;;;;;;;;;;;;;5076257;28;20314;-76
2022/10/30 06:48:21;;;;;;;;;;;;;;;;;;5075993;28;19940;-76
2022/10/30 06:50:53;;;;;;;;;;;;;;;;;;5076462;28;19980;-76
2022/10/30 06:53:19;;;;;;;;;;;;;;;;;;5076088;28;19929;-77
2022/10/30 06:55:53;;;;;;;;;;;;;;;;;;5075571;28;19967;-77
2022/10/30 06:58:19;;;;;;;;;;;;;;;;;;5075968;28;19960;-77
2022/10/30 07:00:46;;;;;;;;;;;;;;;;;;5075591;28;20018;-76
2022/10/30 07:03:12;;;;;;;;;;;;;;;;;;5069433;28;19964;-76
2022/10/30 07:05:39;;;;;;;;;;;;;;;;;;5055497;28;20015;-77
2022/10/30 07:08:05;;;;;;;;;;;;;;;;;;5055968;28;19925;-77
2022/10/30 07:10:32;;;;;;;;;;;;;;;;;;5055440;28;20451;-77
2022/10/30 07:13:00;;;;;;;;;;;;;;;;;;5055789;28;19992;-77
2022/10/30 07:15:26;;;;;;;;;;;;;;;;;;5056470;28;19968;-76
2022/10/30 07:17:54;;;;;;;;;;;;;;;;;;5055566;28;19979;-76
2022/10/30 07:20:20;;;;;;;;;;;;;;;;;;5055592;28;20677;-79
2022/10/30 07:22:47;;;;;;;;;;;;;;;;;;5055397;28;19925;-77
2022/10/30 07:25:13;;;;;;;;;;;;;;;;;;5055380;28;19925;-75
2022/10/30 07:27:43;;;;;;;;;;;;;;;;;;5054819;28;19924;-77
2022/10/30 07:30:12;;;;;;;;;;;;;;;;;;5054695;28;20012;-77
2022/10/30 07:32:38;;;;;;;;;;;;;;;;;;5055044;28;19979;-78
2022/10/30 07:35:06;;;;;;;;;;;;;;;;;;5054912;28;19925;-76
2022/10/30 07:37:32;;;;;;;;;;;;;;;;;;5055049;28;20038;-77
2022/10/30 07:39:59;;;;;;;;;;;;;;;;;;5054781;28;19964;-77
2022/10/30 07:42:25;;;;;;;;;;;;;;;;;;5055068;28;19925;-76
2022/10/30 07:44:52;;;;;;;;;;;;;;;;;;5054706;28;19925;-76
2022/10/30 07:47:20;;;;;;;;;;;;;;;;;;5054520;28;20114;-76
2022/10/30 07:49:46;;;;;;;;;;;;;;;;;;5054183;28;19931;-77
2022/10/30 07:52:12;;;;;;;;;;;;;;;;;;5054962;28;20015;-77
2022/10/30 07:54:39;;;;;;;;;;;;;;;;;;5054780;28;19925;-78
2022/10/30 07:57:05;;;;;;;;;;;;;;;;;;5054688;28;19948;-77
2022/10/30 07:59:32;;;;;;;;;;;;;;;;;;5054255;28;20015;-78
2022/10/30 08:01:59;;;;;;;;;;;;;;;;;;5054673;28;19925;-77
2022/10/30 08:04:27;;;;;;;;;;;;;;;;;;5070844;28;19986;-77
2022/10/30 08:06:53;;;;;;;;;;;;;;;;;;5074153;28;19924;-76
2022/10/30 08:09:20;;;;;;;;;;;;;;;;;;5074139;28;20762;-76
2022/10/30 08:11:46;;;;;;;;;;;;;;;;;;5074243;28;20376;-79
2022/10/30 08:14:13;;;;;;;;;;;;;;;;;;5074273;28;20011;-76
2022/10/30 08:16:39;;;;;;;;;;;;;;;;;;5073879;28;19963;-76
2022/10/30 08:19:06;;;;;;;;;;;;;;;;;;5073741;28;20047;-76
2022/10/30 08:21:33;;;;;;;;;;;;;;;;;;5074009;28;19925;-75
2022/10/30 08:24:00;;;;;;;;;;;;;;;;;;5074386;28;20003;-76
2022/10/30 08:26:26;;;;;;;;;;;;;;;;;;5073909;28;19979;-76
2022/10/30 08:28:53;;;;;;;;;;;;;;;;;;5073937;28;20007;-77
2022/10/30 08:31:19;;;;;;;;;;;;;;;;;;5073577;28;19964;-76
2022/10/30 08:33:46;;;;;;;;;;;;;;;;;;5074085;28;19924;-77
2022/10/30 08:36:12;;;;;;;;;;;;;;;;;;5073820;28;20031;-77
2022/10/30 08:38:40;;;;;;;;;;;;;;;;;;5073205;28;20016;-76
2022/10/30 08:41:06;;;;;;;;;;;;;;;;;;5072923;28;20008;-75
2022/10/30 08:43:33;;;;;;;;;;;;;;;;;;5073687;28;20007;-77
2022/10/30 08:45:59;;;;;;;;;;;;;;;;;;5073756;28;20035;-77
2022/10/30 08:48:26;;;;;;;;;;;;;;;;;;5073796;28;19924;-77
2022/10/30 08:50:53;;;;;;;;;;;;;;;;;;5073576;28;20007;-77
2022/10/30 08:53:20;;;;;;;;;;;;;;;;;;5073811;28;19925;-76
2022/10/30 08:55:48;;;;;;;;;;;;;;;;;;5073307;28;19924;-77
2022/10/30 08:58:14;;;;;;;;;;;;;;;;;;5073072;28;20023;-76
2022/10/30 09:00:41;;;;;;;;;;;;;;;;;;5073085;28;19982;-76
2022/10/30 09:03:07;;;;;;;;;;;;;;;;;;5067647;28;20016;-76
2022/10/30 09:05:33;;;;;;;;;;;;;;;;;;5054349;28;20007;-78
2022/10/30 09:08:00;;;;;;;;;;;;;;;;;;5054561;28;20008;-76
2022/10/30 09:10:27;;;;;;;;;;;;;;;;;;5054712;28;19925;-76
2022/10/30 09:12:58;;;;;;;;;;;;;;;;;;5056315;28;20011;-76
2022/10/30 09:15:25;;;;;;;;;;;;;;;;;;5057589;28;19928;-78
2022/10/30 09:17:55;;;;;;;;;;;;;;;;;;5057905;28;19964;-78
2022/10/30 09:20:22;;;;;;;;;;;;;;;;;;5057857;28;19979;-77
2022/10/30 09:22:48;;;;;;;;;;;;;;;;;;5054655;28;19983;-78
2022/10/30 09:25:14;;;;;;;;;;;;;;;;;;5053592;28;19968;-77
2022/10/30 09:27:43;;;;;;;;;;;;;;;;;;5052227;28;20222;-77
2022/10/30 09:30:11;;;;;;;;;;;;;;;;;;5052811;28;19979;-76
2022/10/30 09:32:38;;;;;;;;;;;;;;;;;;5052259;28;19924;-77
2022/10/30 09:35:05;;;;;;;;;;;;;;;;;;5052899;28;20400;-77
2022/10/30 09:37:33;;;;;;;;;;;;;;;;;;5052869;28;19931;-80
2022/10/30 09:39:59;;;;;;;;;;;;;;;;;;5053979;28;20385;-76
2022/10/30 09:42:35;;;;;;;;;;;;;;;;;;5052827;28;20443;-76
2022/10/30 09:45:10;;;;;;;;;;;;;;;;;;5052578;28;20000;-76
2022/10/30 09:47:45;;;;;;;;;;;;;;;;;;5052404;28;19931;-78
2022/10/30 09:50:18;;;;;;;;;;;;;;;;;;5052120;28;19931;-77
2022/10/30 09:52:48;;;;;;;;;;;;;;;;;;5053451;28;19979;-78
2022/10/30 09:55:23;;;;;;;;;;;;;;;;;;5052642;28;19976;-76
2022/10/30 09:57:53;;;;;;;;;;;;;;;;;;5056157;28;20430;-77
2022/10/30 10:00:21;;;;;;;;;;;;;;;;;;5059973;28;19988;-78
2022/10/30 10:02:56;;;;;;;;;;;;;;;;;;5060076;28;20015;-80
2022/10/30 10:05:25;;;;;;;;;;;;;;;;;;5077122;28;20272;-80
2022/10/30 10:07:54;;;;;;;;;;;;;;;;;;5077723;28;19931;-82
2022/10/30 10:10:24;;;;;;;;;;;;;;;;;;5078996;28;19933;-80
2022/10/30 10:12:51;;;;;;;;;;;;;;;;;;5070912;28;20007;-78
2022/10/30 10:15:21;;;;;;;;;;;;;;;;;;5055864;28;20011;-78
2022/10/30 10:17:47;;;;;;;;;;;;;;;;;;5054930;28;19924;-77
2022/10/30 10:20:19;;;;;;;;;;;;;;;;;;5055459;28;19924;-79
2022/10/30 10:22:48;;;;;;;;;;;;;;;;;;5058078;28;20384;-77
2022/10/30 10:25:16;;;;;;;;;;;;;;;;;;5064707;28;20015;-79
2022/10/30 10:27:49;;;;;;;;;;;;;;;;;;5068868;28;19972;-76
2022/10/30 10:30:19;;;;;;;;;;;;;;;;;;5065851;28;20015;-77
2022/10/30 10:32:59;;;;;;;;;;;;;;;;;;5065564;28;19932;-78
2022/10/30 10:35:44;;;;;;;;;;;;;;;;;;5061127;28;19982;-78
2022/10/30 10:38:16;;;;;;;;;;;;;;;;;;5067741;28;19944;-77
2022/10/30 10:40:47;;;;;;;;;;;;;;;;;;5064415;28;19979;-77
2022/10/30 10:43:20;;;;;;;;;;;;;;;;;;5065460;28;19925;-77
2022/10/30 10:45:49;;;;;;;;;;;;;;;;;;5066801;28;19932;-78
2022/10/30 10:48:27;;;;;;;;;;;;;;;;;;5067587;28;20030;-76
2022/10/30 10:50:57;;;;;;;;;;;;;;;;;;5066755;28;20056;-77
2022/10/30 10:53:27;;;;;;;;;;;;;;;;;;5065854;28;19932;-77
2022/10/30 10:55:56;;;;;;;;;;;;;;;;;;5067479;28;19971;-77
2022/10/30 10:58:27;;;;;;;;;;;;;;;;;;5066107;28;20019;-78
2022/10/30 11:00:54;;;;;;;;;;;;;;;;;;5067454;28;20023;-77
2022/10/30 11:03:22;;;;;;;;;;;;;;;;;;5068888;28;19992;-77
2022/10/30 11:05:51;;;;;;;;;;;;;;;;;;5070020;28;19967;-76
2022/10/30 11:08:19;;;;;;;;;;;;;;;;;;5071092;28;19928;-76
2022/10/30 11:10:47;;;;;;;;;;;;;;;;;;5069685;28;19929;-78
2022/10/30 11:13:13;;;;;;;;;;;;;;;;;;5067197;28;19983;-78
2022/10/30 11:15:46;;;;;;;;;;;;;;;;;;5069896;28;20298;-77
2022/10/30 11:18:14;;;;;;;;;;;;;;;;;;5068727;28;19928;-78
2022/10/30 11:20:43;;;;;;;;;;;;;;;;;;5064644;28;20410;-78
2022/10/30 11:23:28;;;;;;;;;;;;;;;;;;5066906;28;19963;-78
2022/10/30 11:25:56;;;;;;;;;;;;;;;;;;5067888;28;19960;-78
2022/10/30 11:28:31;;;;;;;;;;;;;;;;;;5066524;28;19925;-77
2022/10/30 11:31:16;;;;;;;;;;;;;;;;;;5065683;28;20019;-78
2022/10/30 11:33:43;;;;;;;;;;;;;;;;;;5065147;28;19964;-77
2022/10/30 11:36:09;;;;;;;;;;;;;;;;;;5066693;28;20011;-77
2022/10/30 11:38:36;;;;;;;;;;;;;;;;;;5067389;28;19972;-80
2022/10/30 11:41:09;;;;;;;;;;;;;;;;;;5066741;28;19979;-77
2022/10/30 11:43:36;;;;;;;;;;;;;;;;;;5067324;28;19925;-77
2022/10/30 11:46:08;;;;;;;;;;;;;;;;;;5067843;28;19924;-77
2022/10/30 11:48:35;;;;;;;;;;;;;;;;;;5067964;28;19925;-77
2022/10/30 11:51:02;;;;;;;;;;;;;;;;;;5075436;28;19968;-78
2022/10/30 11:53:32;;;;;;;;;;;;;;;;;;5067279;28;19925;-78
2022/10/30 11:55:59;;;;;;;;;;;;;;;;;;5064437;28;19971;-78
2022/10/30 11:58:29;;;;;;;;;;;;;;;;;;5066566;28;19929;-78
2022/10/30 12:01:00;;;;;;;;;;;;;;;;;;5068920;28;19971;-77
2022/10/30 12:03:28;;;;;;;;;;;;;;;;;;5067125;28;19984;-77
2022/10/30 12:06:06;;;;;;;;;;;;;;;;;;5065158;28;19983;-77
2022/10/30 12:08:32;;;;;;;;;;;;;;;;;;5070198;28;19964;-77
2022/10/30 12:11:00;;;;;;;;;;;;;;;;;;5063787;28;20288;-77
2022/10/30 12:13:32;;;;;;;;;;;;;;;;;;5063073;28;19999;-77
2022/10/30 12:16:19;;;;;;;;;;;;;;;;;;5058958;28;19960;-77
2022/10/30 12:18:53;;;;;;;;;;;;;;;;;;5059097;28;19931;-77
2022/10/30 12:21:20;;;;;;;;;;;;;;;;;;5058991;28;19924;-77
2022/10/30 12:23:50;;;;;;;;;;;;;;;;;;5054179;28;19929;-77
2022/10/30 12:26:17;;;;;;;;;;;;;;;;;;5053757;28;20307;-77
2022/10/30 12:28:50;;;;;;;;;;;;;;;;;;5053629;28;19974;-77
2022/10/30 12:31:18;;;;;;;;;;;;;;;;;;5054027;28;20003;-77
2022/10/30 12:33:48;;;;;;;;;;;;;;;;;;5054199;28;20007;-77
2022/10/30 12:36:16;;;;;;;;;;;;;;;;;;5054110;28;19929;-77
2022/10/30 12:38:44;;;;;;;;;;;;;;;;;;5058636;28;19959;-77
2022/10/30 12:41:15;;;;;;;;;;;;;;;;;;5063996;28;19971;-77
2022/10/30 12:43:42;;;;;;;;;;;;;;;;;;5064987;28;20031;-76
2022/10/30 12:46:17;;;;;;;;;;;;;;;;;;5062275;28;19924;-78
2022/10/30 12:48:49;;;;;;;;;;;;;;;;;;5062404;28;19931;-77
2022/10/30 12:51:17;;;;;;;;;;;;;;;;;;5060338;28;20008;-77
2022/10/30 12:53:46;;;;;;;;;;;;;;;;;;5063093;28;20011;-77
2022/10/30 12:56:15;;;;;;;;;;;;;;;;;;5064077;28;19973;-76
2022/10/30 12:58:44;;;;;;;;;;;;;;;;;;5063159;28;19972;-77
2022/10/30 13:01:16;;;;;;;;;;;;;;;;;;5056154;28;20341;-76
2022/10/30 13:03:53;;;;;;;;;;;;;;;;;;5064228;28;19925;-79
2022/10/30 13:06:23;;;;;;;;;;;;;;;;;;5074516;28;20454;-78
2022/10/30 13:08:55;;;;;;;;;;;;;;;;;;5075721;28;19925;-78
2022/10/30 13:11:33;;;;;;;;;;;;;;;;;;5074238;28;19924;-78
2022/10/30 13:14:00;;;;;;;;;;;;;;;;;;5074061;28;19978;-76
2022/10/30 13:16:28;;;;;;;;;;;;;;;;;;5074115;28;19982;-76
2022/10/30 13:18:56;;;;;;;;;;;;;;;;;;5074764;28;19976;-76
2022/10/30 13:21:26;;;;;;;;;;;;;;;;;;5056286;28;20307;-77
2022/10/30 13:23:56;;;;;;;;;;;;;;;;;;5054255;28;20404;-78
2022/10/30 13:26:30;;;;;;;;;;;;;;;;;;5054327;28;19972;-77
2022/10/30 13:29:01;;;;;;;;;;;;;;;;;;5054036;28;19925;-76
2022/10/30 13:31:32;;;;;;;;;;;;;;;;;;5057159;28;20426;-78
2022/10/30 13:34:02;;;;;;;;;;;;;;;;;;5058713;28;20008;-78
2022/10/30 13:36:32;;;;;;;;;;;;;;;;;;5054224;28;19925;-76
2022/10/30 13:39:01;;;;;;;;;;;;;;;;;;5057147;28;19924;-78
2022/10/30 13:41:31;;;;;;;;;;;;;;;;;;5059524;28;20463;-77
2022/10/30 13:44:02;;;;;;;;;;;;;;;;;;5061875;28;20004;-76
2022/10/30 13:46:33;;;;;;;;;;;;;;;;;;5056377;28;19975;-77
2022/10/30 13:49:17;;;;;;;;;;;;;;;;;;5056661;28;19925;-76
2022/10/30 13:51:45;;;;;;;;;;;;;;;;;;5059332;28;19980;-78
2022/10/30 13:54:17;;;;;;;;;;;;;;;;;;5057049;28;19928;-77
2022/10/30 13:56:45;;;;;;;;;;;;;;;;;;5059453;28;20194;-75
2022/10/30 13:59:19;;;;;;;;;;;;;;;;;;5059610;28;20016;-77
2022/10/30 14:01:50;;;;;;;;;;;;;;;;;;5057668;28;20374;-76
2022/10/30 14:04:19;;;;;;;;;;;;;;;;;;5072359;28;19936;-77
2022/10/30 14:06:51;;;;;;;;;;;;;;;;;;5078155;28;19924;-77
2022/10/30 14:09:21;;;;;;;;;;;;;;;;;;5061050;28;19983;-77
2022/10/30 14:11:47;;;;;;;;;;;;;;;;;;5058656;28;19988;-78
2022/10/30 14:14:28;;;;;;;;;;;;;;;;;;5059283;28;19975;-77
2022/10/30 14:17:10;;;;;;;;;;;;;;;;;;5063562;28;19935;-77
2022/10/30 14:20:10;;;;;;;;;;;;;;;;;;5064457;28;19996;-77
2022/10/30 14:22:36;;;;;;;;;;;;;;;;;;5060964;28;19932;-77
2022/10/30 14:25:12;;;;;;;;;;;;;;;;;;5061713;28;19931;-78
2022/10/30 14:27:39;;;;;;;;;;;;;;;;;;5059283;28;19935;-76
2022/10/30 14:30:16;;;;;;;;;;;;;;;;;;5057495;28;19971;-76
2022/10/30 14:32:48;;;;;;;;;;;;;;;;;;5058659;28;20394;-76
2022/10/30 14:35:41;;;;;;;;;;;;;;;;;;5060778;28;19972;-76
2022/10/30 14:38:35;;;;;;;;;;;;;;;;;;5024257;28;20348;-76
2022/10/30 14:41:19;;;;;;;;;;;;;;;;;;5063167;28;19925;-76
2022/10/30 14:43:50;;;;;;;;;;;;;;;;;;5051609;28;19975;-76
2022/10/30 14:46:21;;;;;;;;;;;;;;;;;;5060674;28;19996;-76
2022/10/30 14:48:52;;;;;;;;;;;;;;;;;;5058296;28;20455;-76
2022/10/30 14:51:21;;;;;;;;;;;;;;;;;;5057470;28;19925;-76
2022/10/30 14:53:55;;;;;;;;;;;;;;;;;;5056696;28;20454;-76
2022/10/30 14:56:27;;;;;;;;;;;;;;;;;;5056391;28;19931;-76
2022/10/30 15:01:51;;;;;;;;;;;;;;;;;;5130782;27;20432;-59
2022/10/30 15:04:23;;;;;;;;;;;;;;;;;;5131050;27;19924;-59
2022/10/30 15:07:00;;;;;;;;;;;;;;;;;;5131295;28;20451;-59
2022/10/30 15:09:31;;;;;;;;;;;;;;;;;;5130471;28;19935;-58
2022/10/30 15:12:13;;;;;;;;;;;;;;;;;;5130588;27;19934;-58
2022/10/30 15:14:41;;;;;;;;;;;;;;;;;;5130708;27;19959;-59
2022/10/30 15:17:16;;;;;;;;;;;;;;;;;;5130851;27;19927;-59
2022/10/30 15:19:42;;;;;;;;;;;;;;;;;;5130170;27;20388;-58
2022/10/30 15:22:15;;;;;;;;;;;;;;;;;;5130217;27;20434;-58
2022/10/30 15:24:42;;;;;;;;;;;;;;;;;;5130300;27;20408;-54
2022/10/30 15:27:14;;;;;;;;;;;;;;;;;;5129702;27;19931;-55
2022/10/30 15:29:43;;;;;;;;;;;;;;;;;;5130495;27;19931;-56
2022/10/30 15:32:16;;;;;;;;;;;;;;;;;;5130193;27;20376;-57
2022/10/30 15:34:52;;;;;;;;;;;;;;;;;;5130238;27;20270;-58
2022/10/30 15:37:19;;;;;;;;;;;;;;;;;;5129841;27;20022;-58
2022/10/30 15:39:45;;;;;;;;;;;;;;;;;;5130246;27;19976;-57
2022/10/30 15:42:13;;;;;;;;;;;;;;;;;;5130445;27;19923;-57
2022/10/30 15:44:41;;;;;;;;;;;;;;;;;;5130013;27;19932;-57
2022/10/30 15:47:12;;;;;;;;;;;;;;;;;;5129919;27;19924;-57
2022/10/30 15:49:41;;;;;;;;;;;;;;;;;;5130985;27;19927;-57
2022/10/30 15:52:12;;;;;;;;;;;;;;;;;;5130445;27;19924;-58
2022/10/30 15:54:40;;;;;;;;;;;;;;;;;;5130210;27;19928;-58
2022/10/30 15:57:06;;;;;;;;;;;;;;;;;;5129566;27;19924;-58
2022/10/30 15:59:33;;;;;;;;;;;;;;;;;;5129834;27;19923;-56
2022/10/30 16:02:00;;;;;;;;;;;;;;;;;;5129632;27;19924;-58
2022/10/30 16:04:30;;;;;;;;;;;;;;;;;;5129483;27;19924;-57
2022/10/30 16:06:59;;;;;;;;;;;;;;;;;;5129663;27;19924;-58
2022/10/30 16:09:26;;;;;;;;;;;;;;;;;;5129566;27;20002;-57
2022/10/30 16:11:55;;;;;;;;;;;;;;;;;;5122725;27;19931;-57
2022/10/30 16:14:23;;;;;;;;;;;;;;;;;;5115811;28;19923;-58
2022/10/30 16:16:49;;;;;;;;;;;;;;;;;;5115609;28;19928;-57
2022/10/30 16:19:19;;;;;;;;;;;;;;;;;;5115830;28;19931;-57
2022/10/30 16:21:46;;;;;;;;;;;;;;;;;;5115449;28;20018;-57
2022/10/30 16:24:14;;;;;;;;;;;;;;;;;;5115603;28;20003;-58
2022/10/30 16:26:41;;;;;;;;;;;;;;;;;;5115434;28;19924;-57
2022/10/30 16:29:15;;;;;;;;;;;;;;;;;;5115630;28;19968;-57
2022/10/30 16:31:43;;;;;;;;;;;;;;;;;;5115242;28;19982;-55
2022/10/30 16:34:12;;;;;;;;;;;;;;;;;;5115247;28;19984;-58
2022/10/30 16:36:39;;;;;;;;;;;;;;;;;;5115311;28;19986;-56
2022/10/30 16:39:06;;;;;;;;;;;;;;;;;;5115191;28;19930;-57
2022/10/30 16:41:34;;;;;;;;;;;;;;;;;;5115016;28;19932;-59
2022/10/30 16:44:20;;;;;;;;;;;;;;;;;;5115052;27;19977;-59
2022/10/30 16:46:51;;;;;;;;;;;;;;;;;;5114870;28;20343;-60
2022/10/30 16:49:18;;;;;;;;;;;;;;;;;;5115142;28;19924;-59
2022/10/30 16:51:45;;;;;;;;;;;;;;;;;;5114865;28;19930;-57
2022/10/30 16:54:18;;;;;;;;;;;;;;;;;;5115012;28;19931;-57
2022/10/30 16:56:47;;;;;;;;;;;;;;;;;;5115037;28;19927;-56
2022/10/30 16:59:20;;;;;;;;;;;;;;;;;;5115407;28;20387;-58